Time;durP1;ratioP1;P1;durP2;ratioP2;P2;SDS_P1;SDS_P2;PMS_P1;PMS_P2;Temp;Humidity;BMP_temperature;BMP_pressure;BME280_temperature;BME280_humidity;BME280_pressure;Samples;Min_cycle;Max_cycle;Signal;HPM_P1;HPM_P2
2021/12/31 00:00:05;;;;;;;30.00;20.63;;;4.00;99.90;;;;;;5030006;28;20088;-74
2021/12/31 00:02:31;;;;;;;27.23;19.25;;;4.00;99.90;;;;;;5019751;28;20108;-75
2021/12/31 00:04:57;;;;;;;26.88;19.73;;;3.80;99.90;;;;;;5020297;28;20108;-73
2021/12/31 00:07:23;;;;;;;25.23;18.48;;;3.80;99.90;;;;;;5029283;28;20122;-74
2021/12/31 00:09:48;;;;;;;25.35;17.98;;;3.80;99.90;;;;;;5030264;28;20025;-74
2021/12/31 00:12:14;;;;;;;20.73;15.40;;;3.90;99.90;;;;;;5017968;28;20108;-76
2021/12/31 00:14:40;;;;;;;28.15;18.65;;;4.00;99.90;;;;;;5029815;28;20486;-75
2021/12/31 00:17:07;;;;;;;26.92;18.38;;;4.10;99.90;;;;;;5030193;28;20390;-75
2021/12/31 00:19:38;;;;;;;25.98;19.58;;;4.10;99.90;;;;;;5014887;28;20383;-75
2021/12/31 00:22:21;;;;;;;23.73;18.05;;;4.10;99.90;;;;;;5028894;28;20460;-74
2021/12/31 00:24:47;;;;;;;26.67;18.83;;;4.00;99.90;;;;;;5029495;28;20030;-74
2021/12/31 00:27:13;;;;;;;26.20;18.90;;;4.00;99.90;;;;;;5029348;28;20099;-74
2021/12/31 00:29:39;;;;;;;26.10;20.20;;;3.90;99.90;;;;;;5028843;28;20100;-74
2021/12/31 00:32:05;;;;;;;27.50;20.13;;;4.00;99.90;;;;;;5028130;28;20025;-74
2021/12/31 00:34:31;;;;;;;26.83;18.30;;;3.90;99.90;;;;;;5019893;28;20057;-73
2021/12/31 00:37:00;;;;;;;22.60;17.55;;;3.90;99.90;;;;;;5028338;28;20387;-74
2021/12/31 00:39:26;;;;;;;25.92;18.40;;;3.90;99.90;;;;;;5009862;28;20067;-74
2021/12/31 00:41:51;;;;;;;24.83;18.67;;;3.90;99.90;;;;;;5027729;28;20665;-74
2021/12/31 00:44:17;;;;;;;25.92;19.60;;;3.80;99.90;;;;;;5028048;28;20087;-73
2021/12/31 00:46:43;;;;;;;23.70;18.60;;;3.80;99.90;;;;;;5012957;28;20447;-73
2021/12/31 00:49:12;;;;;;;27.23;19.20;;;3.80;99.90;;;;;;5027684;28;20057;-74
2021/12/31 00:51:41;;;;;;;25.10;18.58;;;3.80;99.90;;;;;;5017097;28;20479;-74
2021/12/31 00:54:06;;;;;;;26.02;19.10;;;3.80;99.90;;;;;;5016400;28;20026;-76
2021/12/31 00:56:32;;;;;;;21.92;17.02;;;3.80;99.90;;;;;;5018414;28;20035;-75
2021/12/31 00:58:58;;;;;;;23.90;17.70;;;3.70;99.90;;;;;;5018896;28;20434;-74
2021/12/31 01:01:25;;;;;;;21.83;17.42;;;3.80;99.90;;;;;;5018557;28;20025;-74
2021/12/31 01:03:51;;;;;;;23.48;17.80;;;3.80;99.90;;;;;;5021541;28;20021;-74
2021/12/31 01:06:17;;;;;;;24.20;18.45;;;3.70;99.90;;;;;;5030411;28;20468;-75
2021/12/31 01:08:43;;;;;;;23.40;17.70;;;3.70;99.90;;;;;;5024374;28;20093;-80
2021/12/31 01:11:09;;;;;;;25.20;18.90;;;3.70;99.90;;;;;;5036403;28;20112;-79
2021/12/31 01:13:48;;;;;;;24.30;17.70;;;3.80;99.90;;;;;;5035034;28;20029;-81
2021/12/31 01:16:16;;;;;;;22.65;16.90;;;3.80;99.90;;;;;;5032353;28;20368;-81
2021/12/31 01:21:18;;;;;;;23.00;16.38;;;3.70;99.90;;;;;;5036385;28;20091;-81
2021/12/31 01:23:44;;;;;;;27.02;18.35;;;3.60;99.90;;;;;;5018673;28;20108;-81
2021/12/31 01:26:10;;;;;;;32.88;20.90;;;3.70;99.90;;;;;;5036167;28;20060;-81
2021/12/31 01:28:39;;;;;;;35.30;20.98;;;3.70;99.90;;;;;;5026034;28;20032;-80
2021/12/31 01:31:05;;;;;;;26.70;19.45;;;3.70;99.90;;;;;;5031236;28;20025;-81
2021/12/31 01:33:31;;;;;;;28.35;19.45;;;3.60;99.90;;;;;;5035987;28;20022;-81
2021/12/31 01:35:57;;;;;;;27.17;19.58;;;3.60;99.90;;;;;;5036416;28;20052;-81
2021/12/31 01:38:23;;;;;;;24.95;18.85;;;3.60;99.90;;;;;;5035919;28;20026;-81
2021/12/31 01:40:50;;;;;;;28.08;19.20;;;3.60;99.90;;;;;;5036095;28;20447;-80
2021/12/31 01:43:19;;;;;;;28.83;19.30;;;3.60;99.90;;;;;;5018183;28;20029;-80
2021/12/31 01:45:55;;;;;;;28.70;19.33;;;3.50;99.90;;;;;;5035987;28;20053;-81
2021/12/31 01:50:52;;;;;;;28.90;19.77;;;3.30;99.90;;;;;;5035951;28;20025;-80
2021/12/31 01:53:18;;;;;;;25.52;18.13;;;3.40;99.90;;;;;;5026589;28;20029;-80
2021/12/31 01:55:45;;;;;;;25.90;18.03;;;3.30;99.90;;;;;;5035643;28;20036;-81
2021/12/31 01:58:12;;;;;;;509.07;273.13;;;3.40;99.90;;;;;;5021703;28;20052;-81
2021/12/31 02:00:39;;;;;;;175.00;90.67;;;3.50;99.90;;;;;;5035255;28;20030;-74
2021/12/31 02:03:05;;;;;;;173.00;106.40;;;3.50;99.90;;;;;;5035098;28;20060;-80
2021/12/31 02:05:32;;;;;;;46.75;32.22;;;3.60;99.90;;;;;;5035519;28;20026;-81
2021/12/31 02:07:59;;;;;;;37.43;25.33;;;3.50;99.90;;;;;;5035524;28;20041;-81
2021/12/31 02:10:25;;;;;;;31.37;21.20;;;3.50;99.90;;;;;;5035169;28;20456;-81
2021/12/31 02:12:52;;;;;;;28.63;20.53;;;3.60;99.90;;;;;;5035480;28;20029;-80
2021/12/31 02:15:20;;;;;;;24.37;18.20;;;3.60;99.90;;;;;;5035047;28;20112;-81
2021/12/31 02:17:48;;;;;;;22.60;17.50;;;3.60;99.90;;;;;;5033202;28;20040;-81
2021/12/31 02:20:16;;;;;;;22.50;16.87;;;3.60;99.90;;;;;;5026145;28;20021;-80
2021/12/31 02:22:55;;;;;;;19.60;14.60;;;3.70;99.90;;;;;;5034920;28;20051;-81
2021/12/31 02:25:23;;;;;;;19.63;13.23;;;3.40;99.90;;;;;;5019821;28;20021;-81
2021/12/31 02:27:50;;;;;;;18.63;14.07;;;3.20;99.90;;;;;;5034624;28;20037;-81
2021/12/31 02:30:15;;;;;;;15.50;11.23;;;3.30;99.90;;;;;;5034616;28;20035;-81
2021/12/31 02:32:41;;;;;;;11.67;9.00;;;3.30;99.90;;;;;;5035151;28;20391;-80
2021/12/31 02:35:09;;;;;;;10.77;7.73;;;3.40;99.90;;;;;;5034878;28;20033;-81
2021/12/31 02:37:35;;;;;;;7.27;6.13;;;3.50;99.90;;;;;;5035197;28;20372;-80
2021/12/31 02:40:08;;;;;;;6.83;5.50;;;3.60;99.90;;;;;;5033737;28;20014;-80
2021/12/31 02:42:34;;;;;;;6.50;5.27;;;3.70;99.90;;;;;;5033733;28;20029;-81
2021/12/31 02:45:00;;;;;;;7.53;5.63;;;3.80;99.90;;;;;;5034797;28;20099;-81
2021/12/31 02:47:26;;;;;;;5.93;4.80;;;4.00;99.90;;;;;;5033279;28;20487;-80
2021/12/31 02:49:53;;;;;;;5.35;4.85;;;4.10;99.90;;;;;;5034888;28;20079;-80
2021/12/31 02:52:20;;;;;;;4.70;3.93;;;4.20;99.90;;;;;;5034885;28;20029;-81
2021/12/31 02:54:48;;;;;;;4.63;4.07;;;4.20;99.90;;;;;;5034887;28;20037;-81
2021/12/31 02:57:15;;;;;;;4.45;4.03;;;4.20;99.90;;;;;;5033638;28;20112;-81
2021/12/31 02:59:41;;;;;;;3.30;3.08;;;4.30;99.90;;;;;;5034831;28;20031;-81
2021/12/31 03:02:07;;;;;;;4.82;3.70;;;4.40;99.90;;;;;;5034638;28;20029;-81
2021/12/31 03:04:38;;;;;;;4.22;3.92;;;4.40;99.90;;;;;;5034568;28;20025;-81
2021/12/31 03:07:05;;;;;;;4.30;3.90;;;4.40;99.90;;;;;;5034712;28;20116;-81
2021/12/31 03:09:37;;;;;;;4.70;3.97;;;4.50;99.90;;;;;;5034664;28;20499;-80
2021/12/31 03:12:04;;;;;;;4.78;4.18;;;4.60;99.90;;;;;;5034593;28;20025;-80
2021/12/31 03:14:33;;;;;;;6.13;5.43;;;4.70;99.90;;;;;;5033053;28;20518;-80
2021/12/31 03:17:00;;;;;;;8.93;6.65;;;4.60;99.90;;;;;;5034211;28;20111;-81
2021/12/31 03:19:26;;;;;;;7.38;6.40;;;4.50;99.90;;;;;;5016422;28;20484;-81
2021/12/31 03:21:51;;;;;;;11.48;8.38;;;4.40;99.90;;;;;;5034206;28;20071;-80
2021/12/31 03:24:17;;;;;;;16.63;11.65;;;4.30;99.90;;;;;;5033802;28;20022;-81
2021/12/31 03:26:43;;;;;;;20.77;13.18;;;4.20;99.90;;;;;;5033310;28;20155;-81
2021/12/31 03:29:10;;;;;;;20.95;15.10;;;4.10;99.90;;;;;;5015807;28;20056;-80
2021/12/31 03:31:36;;;;;;;23.80;15.18;;;4.10;99.90;;;;;;5014673;28;20404;-81
2021/12/31 03:34:01;;;;;;;24.65;15.90;;;4.10;99.90;;;;;;5033146;28;20029;-81
2021/12/31 03:36:27;;;;;;;20.90;15.32;;;4.00;99.90;;;;;;5033561;28;20387;-80
2021/12/31 03:38:53;;;;;;;20.67;15.07;;;4.00;99.90;;;;;;5033894;28;20030;-81
2021/12/31 03:41:20;;;;;;;25.75;15.52;;;3.90;99.90;;;;;;5016223;28;20025;-81
2021/12/31 03:43:45;;;;;;;24.70;15.25;;;3.90;99.90;;;;;;5033847;28;20551;-81
2021/12/31 03:46:11;;;;;;;21.30;15.38;;;3.90;99.90;;;;;;5033674;28;20108;-80
2021/12/31 03:48:37;;;;;;;20.58;14.70;;;3.90;99.90;;;;;;5033576;28;20029;-80
2021/12/31 03:51:02;;;;;;;22.27;14.80;;;3.80;99.90;;;;;;5033641;28;20048;-81
2021/12/31 03:53:28;;;;;;;21.40;15.38;;;3.80;99.90;;;;;;5015947;28;20022;-80
2021/12/31 03:55:54;;;;;;;23.15;15.82;;;3.80;99.90;;;;;;5033685;28;20068;-81
2021/12/31 03:58:20;;;;;;;28.97;16.67;;;3.80;99.90;;;;;;5033516;28;20487;-81
2021/12/31 04:00:46;;;;;;;21.13;15.53;;;3.80;99.90;;;;;;5033554;28;20379;-81
2021/12/31 04:03:12;;;;;;;23.37;14.30;;;3.80;99.90;;;;;;5015759;28;20022;-80
2021/12/31 04:05:42;;;;;;;23.17;15.93;;;3.80;99.90;;;;;;5015708;28;20030;-81
2021/12/31 04:08:08;;;;;;;22.05;15.57;;;3.70;99.90;;;;;;5015571;28;20040;-80
2021/12/31 04:10:34;;;;;;;23.58;16.02;;;3.70;99.90;;;;;;5033406;28;20100;-80
2021/12/31 04:13:00;;;;;;;21.80;15.83;;;3.70;99.90;;;;;;5033315;28;20220;-81
2021/12/31 04:15:26;;;;;;;24.52;15.90;;;3.60;99.90;;;;;;5015498;28;20560;-81
2021/12/31 04:17:52;;;;;;;22.30;15.27;;;3.60;99.90;;;;;;5015319;28;20021;-80
2021/12/31 04:20:32;;;;;;;24.80;15.70;;;3.60;99.90;;;;;;5033100;28;20026;-80
2021/12/31 04:23:01;;;;;;;20.58;15.43;;;3.60;99.90;;;;;;5033264;28;20017;-81
2021/12/31 04:25:27;;;;;;;22.10;14.87;;;3.60;99.90;;;;;;5033211;28;20024;-81
2021/12/31 04:27:53;;;;;;;18.97;14.53;;;3.60;99.90;;;;;;5032866;28;20049;-81
2021/12/31 04:30:18;;;;;;;19.25;14.80;;;3.60;99.90;;;;;;5033062;28;20029;-81
2021/12/31 04:32:45;;;;;;;18.10;13.53;;;3.50;99.90;;;;;;5015390;28;20033;-81
2021/12/31 04:35:11;;;;;;;18.13;13.83;;;3.40;99.90;;;;;;5033050;28;20057;-81
2021/12/31 04:37:39;;;;;;;20.20;14.87;;;3.40;99.90;;;;;;5015363;28;20125;-81
2021/12/31 04:40:07;;;;;;;19.40;14.73;;;3.40;99.90;;;;;;5015213;28;20036;-80
2021/12/31 04:42:33;;;;;;;21.47;14.73;;;3.40;99.90;;;;;;5014799;28;20116;-80
2021/12/31 04:44:59;;;;;;;16.70;13.90;;;3.40;99.90;;;;;;5032853;28;20125;-80
2021/12/31 04:47:24;;;;;;;18.70;14.17;;;3.40;99.90;;;;;;5015103;28;20448;-81
2021/12/31 04:49:50;;;;;;;20.90;15.03;;;3.40;99.90;;;;;;5015220;28;20037;-81
2021/12/31 04:52:16;;;;;;;17.40;13.80;;;3.40;99.90;;;;;;5015211;28;20044;-80
2021/12/31 04:54:42;;;;;;;20.53;14.90;;;3.40;99.90;;;;;;5032740;28;20104;-81
2021/12/31 04:57:07;;;;;;;18.90;13.70;;;3.40;99.90;;;;;;5032649;28;20049;-81
2021/12/31 04:59:33;;;;;;;19.27;12.80;;;3.30;99.90;;;;;;5032687;28;20380;-81
2021/12/31 05:01:59;;;;;;;17.93;14.27;;;3.20;99.90;;;;;;5015030;28;20022;-80
2021/12/31 05:04:24;;;;;;;16.90;13.70;;;3.20;99.90;;;;;;5032666;28;20103;-80
2021/12/31 05:06:51;;;;;;;19.07;13.90;;;3.20;99.90;;;;;;5032736;28;20120;-81
2021/12/31 05:09:17;;;;;;;19.97;13.67;;;3.20;99.90;;;;;;5014884;28;20036;-80
2021/12/31 05:11:43;;;;;;;17.23;13.17;;;3.10;99.90;;;;;;5032630;28;20395;-81
2021/12/31 05:14:10;;;;;;;18.90;14.23;;;3.10;99.90;;;;;;5014873;28;20033;-81
2021/12/31 05:16:35;;;;;;;17.60;14.13;;;3.00;99.90;;;;;;5032652;28;20079;-81
2021/12/31 05:19:05;;;;;;;19.13;13.97;;;3.00;99.90;;;;;;5032482;28;20029;-80
2021/12/31 05:21:31;;;;;;;16.87;13.23;;;3.00;99.90;;;;;;5032546;28;20026;-81
2021/12/31 05:23:57;;;;;;;17.67;14.20;;;3.00;99.90;;;;;;5032477;28;20029;-81
2021/12/31 05:26:24;;;;;;;17.73;12.50;;;3.00;99.90;;;;;;5032412;28;20164;-81
2021/12/31 05:28:49;;;;;;;16.63;12.33;;;3.00;99.90;;;;;;5014729;28;20091;-80
2021/12/31 05:31:16;;;;;;;15.67;12.97;;;3.00;99.90;;;;;;5032544;28;20029;-81
2021/12/31 05:33:42;;;;;;;14.97;12.30;;;3.00;99.90;;;;;;5032463;28;20395;-81
2021/12/31 05:36:08;;;;;;;14.97;12.83;;;3.00;99.90;;;;;;5014727;28;20121;-81
2021/12/31 05:38:34;;;;;;;17.47;12.97;;;3.00;99.90;;;;;;5032002;28;20053;-80
2021/12/31 05:41:00;;;;;;;14.67;12.40;;;3.00;99.90;;;;;;5014729;28;20379;-81
2021/12/31 05:43:26;;;;;;;15.53;12.77;;;3.00;99.90;;;;;;5014731;28;20032;-81
2021/12/31 05:45:51;;;;;;;15.33;13.23;;;3.00;99.90;;;;;;5032290;28;20025;-81
2021/12/31 05:48:17;;;;;;;14.60;12.80;;;3.00;99.90;;;;;;5032325;28;20025;-81
2021/12/31 05:50:43;;;;;;;14.87;12.50;;;2.90;99.90;;;;;;5032305;28;20390;-80
2021/12/31 05:53:09;;;;;;;18.13;12.70;;;2.90;99.90;;;;;;5032202;28;20025;-81
2021/12/31 05:55:34;;;;;;;14.47;11.90;;;2.80;99.90;;;;;;5035387;28;20026;-81
2021/12/31 05:58:02;;;;;;;17.77;13.43;;;2.90;99.90;;;;;;5035811;28;20483;-81
2021/12/31 06:00:28;;;;;;;19.03;12.60;;;2.90;99.90;;;;;;5035805;28;20021;-74
2021/12/31 06:02:56;;;;;;;16.43;12.80;;;2.90;99.90;;;;;;5018229;28;20022;-74
2021/12/31 06:05:25;;;;;;;16.17;12.83;;;2.80;99.90;;;;;;5017272;28;20029;-74
2021/12/31 06:07:56;;;;;;;15.23;12.73;;;2.90;99.90;;;;;;5035739;28;20028;-74
2021/12/31 06:10:23;;;;;;;18.27;12.57;;;2.80;99.90;;;;;;5035517;28;20483;-74
2021/12/31 06:12:51;;;;;;;17.40;13.40;;;2.80;99.90;;;;;;5017414;28;20758;-74
2021/12/31 06:15:18;;;;;;;18.40;13.97;;;2.70;99.90;;;;;;5017575;28;20028;-74
2021/12/31 06:17:44;;;;;;;18.37;13.53;;;2.80;99.90;;;;;;5035352;28;20021;-74
2021/12/31 06:20:11;;;;;;;16.90;13.20;;;2.70;99.90;;;;;;5035147;28;20498;-75
2021/12/31 06:22:37;;;;;;;16.73;12.77;;;2.70;99.90;;;;;;5035166;28;20123;-74
2021/12/31 06:25:03;;;;;;;15.10;13.33;;;2.70;99.90;;;;;;5035159;28;20491;-74
2021/12/31 06:27:29;;;;;;;16.63;12.70;;;2.70;99.90;;;;;;5034998;28;20054;-74
2021/12/31 06:29:55;;;;;;;15.47;12.57;;;2.60;99.90;;;;;;5034763;28;20052;-74
2021/12/31 06:32:21;;;;;;;19.07;12.60;;;2.60;99.90;;;;;;5035043;28;20025;-74
2021/12/31 06:34:46;;;;;;;15.53;13.47;;;2.60;99.90;;;;;;5035004;28;20021;-74
2021/12/31 06:37:12;;;;;;;14.53;12.07;;;2.60;99.90;;;;;;5034886;28;20375;-74
2021/12/31 06:39:39;;;;;;;14.07;12.13;;;2.70;99.90;;;;;;5034808;28;20021;-74
2021/12/31 06:42:07;;;;;;;16.13;12.83;;;2.60;99.90;;;;;;5035074;28;20075;-74
2021/12/31 06:44:34;;;;;;;12.97;11.57;;;2.60;99.90;;;;;;5033588;28;20071;-74
2021/12/31 06:47:00;;;;;;;16.00;13.10;;;2.60;99.90;;;;;;5034933;28;20610;-74
2021/12/31 06:49:26;;;;;;;15.20;12.60;;;2.60;99.90;;;;;;5034605;28;20029;-74
2021/12/31 06:51:51;;;;;;;13.83;11.93;;;2.60;99.90;;;;;;5034248;28;20021;-75
2021/12/31 06:54:17;;;;;;;13.67;12.07;;;2.60;99.90;;;;;;5034395;28;20052;-74
2021/12/31 06:56:43;;;;;;;15.03;12.37;;;2.50;99.90;;;;;;5034360;28;20022;-74
2021/12/31 06:59:08;;;;;;;12.90;11.60;;;2.40;99.90;;;;;;5034492;28;20029;-74
2021/12/31 07:01:34;;;;;;;12.83;11.30;;;2.40;99.90;;;;;;5034627;28;20353;-74
2021/12/31 07:04:00;;;;;;;16.50;11.83;;;2.40;99.90;;;;;;5034260;28;20140;-74
2021/12/31 07:06:26;;;;;;;13.97;12.57;;;2.40;99.90;;;;;;5026945;28;20035;-74
2021/12/31 07:08:51;;;;;;;14.60;12.73;;;2.50;99.90;;;;;;5016190;28;20048;-74
2021/12/31 07:11:20;;;;;;;14.50;12.50;;;2.50;99.90;;;;;;5034420;28;20067;-74
2021/12/31 07:13:45;;;;;;;12.70;11.33;;;2.50;99.90;;;;;;5016393;28;20111;-74
2021/12/31 07:16:11;;;;;;;14.90;12.47;;;2.50;99.90;;;;;;5034288;28;20065;-74
2021/12/31 07:18:37;;;;;;;16.13;13.60;;;2.60;99.90;;;;;;5033851;28;20021;-74
2021/12/31 07:21:03;;;;;;;16.03;12.53;;;2.60;99.90;;;;;;5034207;28;20434;-74
2021/12/31 07:23:28;;;;;;;15.53;12.90;;;2.60;99.90;;;;;;5034007;28;20522;-74
2021/12/31 07:25:54;;;;;;;15.27;13.23;;;2.60;99.90;;;;;;5033731;28;20116;-74
2021/12/31 07:28:20;;;;;;;24.00;17.20;;;2.70;99.90;;;;;;5034061;28;20506;-74
2021/12/31 07:30:46;;;;;;;19.87;14.87;;;2.80;99.90;;;;;;5016203;28;20025;-74
2021/12/31 07:33:21;;;;;;;17.20;13.40;;;2.80;99.90;;;;;;5033817;28;20041;-74
2021/12/31 07:35:47;;;;;;;15.87;12.53;;;2.90;99.90;;;;;;5033824;28;20025;-74
2021/12/31 07:38:20;;;;;;;13.43;11.53;;;2.80;99.90;;;;;;5015785;28;20025;-74
2021/12/31 07:40:48;;;;;;;14.33;11.97;;;2.90;99.90;;;;;;5033812;28;20021;-74
2021/12/31 07:43:14;;;;;;;12.97;11.60;;;2.90;99.90;;;;;;5033703;28;20057;-74
2021/12/31 07:45:41;;;;;;;12.27;10.33;;;2.90;99.90;;;;;;5033647;28;20029;-74
2021/12/31 07:48:07;;;;;;;11.97;10.30;;;2.90;99.90;;;;;;5015854;28;20587;-74
2021/12/31 07:50:33;;;;;;;14.87;11.43;;;2.90;99.90;;;;;;5033635;28;20052;-74
2021/12/31 07:52:59;;;;;;;16.90;11.87;;;3.00;99.90;;;;;;5015504;28;20619;-74
2021/12/31 07:55:25;;;;;;;18.67;13.00;;;3.00;99.90;;;;;;5015585;28;20025;-74
2021/12/31 07:57:51;;;;;;;20.13;14.20;;;3.00;99.90;;;;;;5033320;28;20104;-74
2021/12/31 08:00:17;;;;;;;17.87;13.10;;;3.10;99.90;;;;;;5015642;28;20021;-74
2021/12/31 08:02:43;;;;;;;17.57;13.60;;;3.10;99.90;;;;;;5033565;28;20438;-74
2021/12/31 08:05:09;;;;;;;19.30;13.27;;;3.10;99.90;;;;;;5033017;28;20029;-74
2021/12/31 08:07:35;;;;;;;20.23;14.07;;;3.20;99.90;;;;;;5032979;28;20036;-74
2021/12/31 08:10:03;;;;;;;20.93;14.17;;;3.20;99.90;;;;;;5033248;28;20034;-74
2021/12/31 08:12:29;;;;;;;20.63;13.70;;;3.20;99.90;;;;;;5033394;28;20022;-74
2021/12/31 08:14:55;;;;;;;19.53;14.57;;;3.30;99.90;;;;;;5015419;28;20360;-74
2021/12/31 08:17:21;;;;;;;18.40;13.60;;;3.30;99.90;;;;;;5032224;28;20029;-74
2021/12/31 08:19:47;;;;;;;17.37;13.73;;;3.40;99.90;;;;;;5014647;28;20033;-74
2021/12/31 08:22:13;;;;;;;23.00;16.23;;;3.40;99.90;;;;;;5033024;28;20017;-74
2021/12/31 08:24:38;;;;;;;25.97;17.77;;;3.40;99.90;;;;;;5015089;28;20360;-74
2021/12/31 08:27:04;;;;;;;23.90;16.93;;;3.50;99.90;;;;;;5014555;28;20095;-74
2021/12/31 08:29:30;;;;;;;25.47;17.33;;;3.50;99.90;;;;;;5031957;28;20037;-74
2021/12/31 08:31:56;;;;;;;34.77;20.00;;;3.60;99.90;;;;;;5024587;28;20025;-74
2021/12/31 08:34:21;;;;;;;59.03;24.47;;;3.60;99.90;;;;;;5030273;28;20036;-75
2021/12/31 08:36:47;;;;;;;51.73;22.97;;;3.70;99.90;;;;;;5032198;28;20032;-74
2021/12/31 08:39:13;;;;;;;47.33;22.80;;;3.70;99.90;;;;;;5031920;28;20029;-74
2021/12/31 08:41:40;;;;;;;41.00;21.97;;;3.80;99.90;;;;;;5018079;28;20026;-74
2021/12/31 08:44:07;;;;;;;35.50;19.00;;;3.80;99.90;;;;;;5024515;28;20030;-74
2021/12/31 08:46:34;;;;;;;25.43;16.83;;;3.80;99.90;;;;;;5031717;28;20591;-74
2021/12/31 08:49:00;;;;;;;20.43;15.53;;;3.90;99.90;;;;;;5020623;28;20430;-74
2021/12/31 08:51:26;;;;;;;22.43;14.93;;;3.90;99.90;;;;;;5032001;28;20479;-74
2021/12/31 08:53:53;;;;;;;19.37;13.20;;;4.00;99.90;;;;;;5016887;28;20060;-74
2021/12/31 08:56:19;;;;;;;15.00;11.90;;;4.00;99.90;;;;;;5031585;28;20092;-74
2021/12/31 08:58:44;;;;;;;16.60;13.17;;;4.00;99.90;;;;;;5031030;28;20101;-74
2021/12/31 09:01:10;;;;;;;16.60;12.70;;;4.00;99.90;;;;;;5031198;28;20045;-74
2021/12/31 09:03:39;;;;;;;18.48;13.52;;;4.10;99.90;;;;;;5031459;28;20018;-74
2021/12/31 09:06:06;;;;;;;16.63;12.87;;;4.20;99.90;;;;;;5031310;28;20045;-74
2021/12/31 09:08:33;;;;;;;17.45;13.40;;;4.20;99.90;;;;;;5026407;28;20483;-74
2021/12/31 09:10:59;;;;;;;16.85;13.05;;;4.20;99.90;;;;;;5032105;28;20021;-73
2021/12/31 09:13:25;;;;;;;20.10;14.67;;;4.30;99.90;;;;;;5032388;28;20025;-74
2021/12/31 09:15:50;;;;;;;17.38;13.80;;;4.30;99.90;;;;;;5028336;28;20160;-75
2021/12/31 09:18:16;;;;;;;17.55;14.63;;;4.40;99.90;;;;;;5031343;28;20108;-74
2021/12/31 09:20:42;;;;;;;18.67;15.65;;;4.50;99.90;;;;;;5032589;28;20033;-74
2021/12/31 09:23:07;;;;;;;24.20;17.13;;;4.60;99.90;;;;;;5031290;28;20026;-74
2021/12/31 09:25:33;;;;;;;22.25;17.50;;;4.60;99.90;;;;;;5025946;28;20483;-75
2021/12/31 09:27:59;;;;;;;26.88;19.92;;;4.60;99.90;;;;;;5031609;28;20132;-74
2021/12/31 09:30:25;;;;;;;24.42;18.85;;;4.70;99.90;;;;;;5033971;28;20029;-74
2021/12/31 09:32:50;;;;;;;24.92;19.00;;;4.70;99.90;;;;;;5035653;28;20029;-74
2021/12/31 09:35:16;;;;;;;26.25;18.90;;;4.80;99.90;;;;;;5035739;28;20411;-74
2021/12/31 09:37:43;;;;;;;26.15;19.75;;;4.80;99.90;;;;;;5035917;28;20025;-74
2021/12/31 09:40:09;;;;;;;26.10;18.77;;;4.80;99.90;;;;;;5017554;28;20060;-74
2021/12/31 09:42:36;;;;;;;26.77;18.90;;;4.90;99.90;;;;;;5036078;28;20030;-80
2021/12/31 09:45:03;;;;;;;25.48;18.08;;;4.90;99.90;;;;;;5018296;28;20030;-80
2021/12/31 09:47:28;;;;;;;24.45;17.08;;;5.00;99.90;;;;;;5035390;28;20045;-81
2021/12/31 09:49:54;;;;;;;23.02;16.98;;;5.00;99.90;;;;;;5036103;28;20067;-81
2021/12/31 09:52:22;;;;;;;20.77;16.33;;;5.00;99.90;;;;;;5036031;28;20025;-81
2021/12/31 09:54:49;;;;;;;21.15;16.55;;;5.10;99.90;;;;;;5035758;28;20037;-80
2021/12/31 09:57:20;;;;;;;20.65;16.38;;;5.10;99.90;;;;;;5035885;28;20021;-81
2021/12/31 09:59:47;;;;;;;18.55;14.98;;;5.10;99.90;;;;;;5017969;28;20029;-81
2021/12/31 10:02:15;;;;;;;21.55;16.77;;;5.20;99.90;;;;;;5035737;28;20024;-81
2021/12/31 10:04:59;;;;;;;21.98;17.23;;;5.10;99.90;;;;;;5017749;28;20022;-81
2021/12/31 10:07:29;;;;;;;20.52;16.50;;;5.00;99.90;;;;;;5035013;28;20099;-82
2021/12/31 10:10:24;;;;;;;21.48;16.35;;;5.10;99.90;;;;;;5016088;28;20033;-80
2021/12/31 10:12:56;;;;;;;21.45;15.88;;;5.00;99.90;;;;;;5030659;28;20037;-81
2021/12/31 10:15:24;;;;;;;;;;;5.00;99.90;;;;;;5016225;28;20037;-81
2021/12/31 10:17:50;;;;;;;24.20;16.88;;;5.00;99.90;;;;;;5033858;28;19936;-82
2021/12/31 10:20:17;;;;;;;19.58;16.73;;;5.00;99.90;;;;;;5017202;28;20030;-81
2021/12/31 10:22:45;;;;;;;22.45;17.55;;;5.00;99.90;;;;;;5016737;28;20029;-81
2021/12/31 10:25:24;;;;;;;21.75;17.20;;;5.00;99.90;;;;;;5016838;28;20113;-81
2021/12/31 10:27:52;;;;;;;23.73;17.95;;;5.00;99.90;;;;;;5033007;28;20041;-74
2021/12/31 10:30:26;;;;;;;22.08;17.05;;;5.10;99.90;;;;;;5032753;28;20033;-74
2021/12/31 10:32:52;;;;;;;22.65;17.35;;;5.20;99.90;;;;;;5032560;28;20036;-74
2021/12/31 10:35:22;;;;;;;26.13;18.50;;;5.20;99.90;;;;;;5014081;28;20435;-74
2021/12/31 10:37:53;;;;;;;24.05;18.75;;;5.30;99.90;;;;;;5033497;28;20083;-74
2021/12/31 10:40:33;;;;;;;27.35;18.58;;;5.30;99.90;;;;;;5034150;28;20514;-74
2021/12/31 10:43:12;;;;;;;25.67;18.23;;;5.50;99.90;;;;;;5033431;28;20049;-74
2021/12/31 10:45:39;;;;;;;27.10;19.48;;;5.50;99.90;;;;;;5015934;28;20052;-74
2021/12/31 10:48:09;;;;;;;24.48;18.70;;;5.60;99.90;;;;;;5033502;28;20136;-74
2021/12/31 10:50:37;;;;;;;26.15;20.02;;;5.70;99.90;;;;;;5033441;28;20025;-74
2021/12/31 10:53:10;;;;;;;26.40;19.85;;;5.80;99.90;;;;;;5015767;28;20025;-74
2021/12/31 10:55:41;;;;;;;24.48;18.80;;;5.90;99.90;;;;;;5033419;28;20030;-74
2021/12/31 10:58:11;;;;;;;27.23;18.98;;;6.00;99.90;;;;;;5034484;28;20025;-74
2021/12/31 11:00:44;;;;;;;24.80;18.60;;;6.10;99.90;;;;;;5016752;28;20650;-74
2021/12/31 11:03:10;;;;;;;27.50;18.75;;;6.20;99.90;;;;;;5034358;28;20037;-74
2021/12/31 11:05:36;;;;;;;28.55;19.30;;;6.30;99.90;;;;;;5034257;28;20017;-74
2021/12/31 11:08:04;;;;;;;33.90;22.15;;;6.40;99.90;;;;;;5016289;28;20037;-74
2021/12/31 11:10:38;;;;;;;30.48;21.23;;;6.50;99.90;;;;;;5033937;28;20048;-74
2021/12/31 11:13:09;;;;;;;22.67;17.30;;;6.60;99.90;;;;;;5034130;28;20030;-74
2021/12/31 11:15:35;;;;;;;23.85;18.17;;;6.70;99.90;;;;;;5016204;28;20033;-74
2021/12/31 11:18:01;;;;;;;22.77;18.15;;;6.80;99.90;;;;;;5034170;28;20422;-74
2021/12/31 11:20:27;;;;;;;23.60;17.58;;;6.90;99.90;;;;;;5033869;28;20025;-74
2021/12/31 11:22:53;;;;;;;24.30;16.83;;;7.00;99.90;;;;;;5034138;28;20029;-74
2021/12/31 11:25:18;;;;;;;25.15;17.13;;;7.10;99.90;;;;;;5016269;28;20365;-74
2021/12/31 11:27:48;;;;;;;23.77;17.38;;;7.30;99.90;;;;;;5015680;28;20057;-74
2021/12/31 11:30:38;;;;;;;25.02;17.85;;;7.40;99.90;;;;;;5016342;28;20025;-74
2021/12/31 11:33:05;;;;;;;25.27;19.15;;;7.40;99.90;;;;;;5033884;28;20079;-74
2021/12/31 11:35:39;;;;;;;24.05;18.27;;;7.40;99.90;;;;;;5015820;28;20418;-74
2021/12/31 11:38:16;;;;;;;24.42;17.58;;;7.50;99.90;;;;;;5033363;28;20021;-74
2021/12/31 11:40:49;;;;;;;24.15;17.95;;;7.50;99.90;;;;;;5033429;28;20029;-74
2021/12/31 11:43:23;;;;;;;27.67;18.30;;;7.50;99.90;;;;;;5033283;28;20022;-74
2021/12/31 11:46:19;;;;;;;27.65;18.38;;;7.60;99.90;;;;;;5033376;28;20029;-74
2021/12/31 11:48:48;;;;;;;27.10;17.55;;;7.60;99.90;;;;;;5015578;28;20091;-74
2021/12/31 11:51:16;;;;;;;27.95;17.77;;;7.60;99.90;;;;;;5015300;28;20036;-74
2021/12/31 11:54:00;;;;;;;25.90;17.40;;;7.70;99.90;;;;;;5015587;28;20025;-74
2021/12/31 11:56:43;;;;;;;23.60;17.58;;;7.70;99.90;;;;;;5033328;28;20049;-74
2021/12/31 11:59:12;;;;;;;24.38;16.17;;;7.80;99.90;;;;;;5033283;28;20019;-74
2021/12/31 12:01:38;;;;;;;22.05;14.55;;;7.90;99.90;;;;;;5015554;28;20031;-74
2021/12/31 12:04:30;;;;;;;25.67;15.60;;;7.90;99.90;;;;;;5015358;28;20021;-75
2021/12/31 12:07:09;;;;;;;18.93;13.93;;;8.00;99.90;;;;;;5032978;28;20379;-74
2021/12/31 12:09:38;;;;;;;20.75;13.60;;;8.10;99.90;;;;;;5033396;28;20339;-74
2021/12/31 12:12:22;;;;;;;19.23;11.85;;;8.20;99.90;;;;;;5033166;28;20026;-74
2021/12/31 12:14:53;;;;;;;16.83;12.95;;;8.30;99.90;;;;;;5015300;28;20075;-74
2021/12/31 12:17:28;;;;;;;22.15;13.07;;;8.40;99.90;;;;;;5033053;28;20068;-74
2021/12/31 12:19:57;;;;;;;19.63;13.88;;;8.50;99.90;;;;;;5015455;28;20021;-75
2021/12/31 12:22:50;;;;;;;18.15;12.77;;;8.60;99.90;;;;;;5015277;28;20352;-74
2021/12/31 12:25:24;;;;;;;20.75;13.77;;;8.70;99.90;;;;;;5015672;28;20079;-74
2021/12/31 12:27:56;;;;;;;19.52;13.82;;;8.70;99.90;;;;;;5032861;28;20111;-75
2021/12/31 12:30:23;;;;;;;19.38;14.30;;;8.80;99.90;;;;;;5033158;28;20025;-74
2021/12/31 12:33:04;;;;;;;20.55;14.35;;;8.80;99.90;;;;;;5015228;28;20044;-75
2021/12/31 12:35:38;;;;;;;21.23;13.93;;;8.90;99.90;;;;;;5032715;28;20376;-74
2021/12/31 12:38:11;;;;;;;23.42;14.20;;;8.80;99.90;;;;;;5032824;28;20063;-74
2021/12/31 12:41:11;;;;;;;19.98;14.85;;;8.90;99.90;;;;;;5015049;28;20040;-74
2021/12/31 12:43:46;;;;;;;25.30;14.63;;;8.90;99.90;;;;;;5015009;28;20021;-75
2021/12/31 12:46:18;;;;;;;23.17;16.17;;;9.00;99.90;;;;;;5032655;28;20033;-74